sensor_id;sensor_type;location;lat;lon;timestamp;pressure;altitude;pressure_sealevel;temperature;humidity
35553;BME280;21656;46.054;13.614;2022-08-21T06:16:17;100212.03;;;19.80;87.66
35553;BME280;21656;46.054;13.614;2022-08-21T06:18:44;100208.63;;;19.92;84.36
35553;BME280;21656;46.054;13.614;2022-08-21T06:21:12;100211.00;;;19.96;84.54
35553;BME280;21656;46.054;13.614;2022-08-21T06:23:38;100204.31;;;19.98;85.82
35553;BME280;21656;46.054;13.614;2022-08-21T06:26:05;100214.66;;;20.03;85.17
35553;BME280;21656;46.054;13.614;2022-08-21T06:28:33;100213.13;;;20.15;82.54
35553;BME280;21656;46.054;13.614;2022-08-21T06:30:58;100218.69;;;20.22;82.96
35553;BME280;21656;46.054;13.614;2022-08-21T06:33:24;100213.72;;;20.10;83.78
35553;BME280;21656;46.054;13.614;2022-08-21T06:35:49;100205.44;;;19.89;84.57
35553;BME280;21656;46.054;13.614;2022-08-21T06:38:15;100210.50;;;19.92;85.47
35553;BME280;21656;46.054;13.614;2022-08-21T06:40:40;100209.78;;;19.83;85.75
35553;BME280;21656;46.054;13.614;2022-08-21T06:43:09;100207.03;;;19.83;83.69
35553;BME280;21656;46.054;13.614;2022-08-21T06:45:35;100213.25;;;19.92;83.35
35553;BME280;21656;46.054;13.614;2022-08-21T06:48:00;100215.22;;;20.13;83.59
35553;BME280;21656;46.054;13.614;2022-08-21T06:50:26;100203.59;;;20.26;82.68
35553;BME280;21656;46.054;13.614;2022-08-21T06:53:03;100204.56;;;20.18;83.55
35553;BME280;21656;46.054;13.614;2022-08-21T06:55:29;100210.09;;;20.25;83.75
35553;BME280;21656;46.054;13.614;2022-08-21T06:57:54;100212.28;;;20.14;84.12
35553;BME280;21656;46.054;13.614;2022-08-21T07:00:20;100207.66;;;20.15;83.93
35553;BME280;21656;46.054;13.614;2022-08-21T07:02:45;100206.91;;;20.21;83.48
35553;BME280;21656;46.054;13.614;2022-08-21T07:05:11;100200.09;;;20.32;83.32
35553;BME280;21656;46.054;13.614;2022-08-21T07:07:36;100206.53;;;20.46;82.38
35553;BME280;21656;46.054;13.614;2022-08-21T07:10:02;100206.34;;;20.62;80.75
35553;BME280;21656;46.054;13.614;2022-08-21T07:12:27;100210.03;;;20.76;79.42
35553;BME280;21656;46.054;13.614;2022-08-21T07:14:53;100202.75;;;20.83;78.79
35553;BME280;21656;46.054;13.614;2022-08-21T07:17:18;100210.25;;;20.96;77.62
35553;BME280;21656;46.054;13.614;2022-08-21T07:19:44;100201.91;;;21.04;78.56
35553;BME280;21656;46.054;13.614;2022-08-21T07:22:09;100202.34;;;20.86;74.40
35553;BME280;21656;46.054;13.614;2022-08-21T07:24:35;100195.13;;;21.00;76.04
35553;BME280;21656;46.054;13.614;2022-08-21T07:27:00;100189.31;;;21.10;75.97
35553;BME280;21656;46.054;13.614;2022-08-21T07:29:25;100194.00;;;21.16;75.12
35553;BME280;21656;46.054;13.614;2022-08-21T07:31:51;100193.84;;;21.24;75.34
35553;BME280;21656;46.054;13.614;2022-08-21T07:34:16;100188.44;;;21.31;75.37
35553;BME280;21656;46.054;13.614;2022-08-21T07:36:42;100184.53;;;21.40;74.07
35553;BME280;21656;46.054;13.614;2022-08-21T07:39:07;100189.66;;;21.50;73.05
35553;BME280;21656;46.054;13.614;2022-08-21T07:41:33;100177.94;;;21.62;70.38
35553;BME280;21656;46.054;13.614;2022-08-21T07:43:59;100180.50;;;21.71;71.37
35553;BME280;21656;46.054;13.614;2022-08-21T07:46:25;100172.34;;;21.84;70.61
35553;BME280;21656;46.054;13.614;2022-08-21T07:48:52;100179.78;;;21.97;70.73
35553;BME280;21656;46.054;13.614;2022-08-21T07:51:18;100170.75;;;22.03;67.77
35553;BME280;21656;46.054;13.614;2022-08-21T07:53:51;100173.06;;;21.99;66.58
35553;BME280;21656;46.054;13.614;2022-08-21T07:56:18;100166.59;;;22.14;67.27
35553;BME280;21656;46.054;13.614;2022-08-21T07:58:44;100161.59;;;22.31;65.01
35553;BME280;21656;46.054;13.614;2022-08-21T08:01:09;100164.59;;;22.49;64.45
35553;BME280;21656;46.054;13.614;2022-08-21T08:03:35;100159.56;;;22.59;66.57
35553;BME280;21656;46.054;13.614;2022-08-21T08:06:00;100154.91;;;22.73;64.95
35553;BME280;21656;46.054;13.614;2022-08-21T08:08:26;100154.50;;;22.83;63.58
35553;BME280;21656;46.054;13.614;2022-08-21T08:10:53;100152.88;;;23.02;61.33
35553;BME280;21656;46.054;13.614;2022-08-21T08:13:21;100147.38;;;23.15;60.68
35553;BME280;21656;46.054;13.614;2022-08-21T08:15:47;100150.72;;;23.30;59.92
35553;BME280;21656;46.054;13.614;2022-08-21T08:18:13;100135.91;;;23.45;61.16
35553;BME280;21656;46.054;13.614;2022-08-21T08:20:39;100131.84;;;23.61;58.97
35553;BME280;21656;46.054;13.614;2022-08-21T08:23:09;100128.00;;;23.75;58.78
35553;BME280;21656;46.054;13.614;2022-08-21T08:25:35;100136.59;;;23.98;57.03
35553;BME280;21656;46.054;13.614;2022-08-21T08:28:01;100123.41;;;24.14;56.75
35553;BME280;21656;46.054;13.614;2022-08-21T08:30:27;100124.59;;;24.31;56.32
35553;BME280;21656;46.054;13.614;2022-08-21T08:32:53;100123.41;;;24.52;54.95
35553;BME280;21656;46.054;13.614;2022-08-21T08:35:19;100123.28;;;24.72;54.02
35553;BME280;21656;46.054;13.614;2022-08-21T08:37:44;100113.84;;;24.86;53.42
35553;BME280;21656;46.054;13.614;2022-08-21T08:40:14;100113.94;;;24.98;52.03
35553;BME280;21656;46.054;13.614;2022-08-21T08:42:43;100110.47;;;25.09;52.47
35553;BME280;21656;46.054;13.614;2022-08-21T08:45:12;100113.91;;;25.30;51.97
35553;BME280;21656;46.054;13.614;2022-08-21T08:47:42;100102.03;;;25.48;49.11
35553;BME280;21656;46.054;13.614;2022-08-21T08:50:22;100109.00;;;25.69;49.92
35553;BME280;21656;46.054;13.614;2022-08-21T08:52:53;100107.56;;;25.85;49.62
35553;BME280;21656;46.054;13.614;2022-08-21T08:55:23;100088.94;;;25.99;47.88
35553;BME280;21656;46.054;13.614;2022-08-21T08:57:51;100103.38;;;26.12;47.27
35553;BME280;21656;46.054;13.614;2022-08-21T09:00:20;100097.72;;;26.07;49.00
35553;BME280;21656;46.054;13.614;2022-08-21T09:02:49;100099.34;;;25.97;47.84
35553;BME280;21656;46.054;13.614;2022-08-21T09:05:27;100096.59;;;25.97;49.58
35553;BME280;21656;46.054;13.614;2022-08-21T09:11:04;100097.34;;;26.04;48.79
35553;BME280;21656;46.054;13.614;2022-08-21T09:16:38;100096.53;;;26.15;49.22
35553;BME280;21656;46.054;13.614;2022-08-21T09:22:03;100098.53;;;26.38;48.49
35553;BME280;21656;46.054;13.614;2022-08-21T09:24:53;100093.53;;;26.47;48.48
35553;BME280;21656;46.054;13.614;2022-08-21T09:27:23;100093.06;;;26.50;48.32
35553;BME280;21656;46.054;13.614;2022-08-21T09:29:52;100093.91;;;26.50;47.12
35553;BME280;21656;46.054;13.614;2022-08-21T09:32:38;100092.44;;;26.48;47.50
35553;BME280;21656;46.054;13.614;2022-08-21T09:37:31;100076.94;;;26.35;49.30
35553;BME280;21656;46.054;13.614;2022-08-21T09:39:58;100083.91;;;26.37;49.66
35553;BME280;21656;46.054;13.614;2022-08-21T09:42:31;100078.03;;;26.34;48.65
35553;BME280;21656;46.054;13.614;2022-08-21T09:47:34;100069.34;;;26.61;49.17
35553;BME280;21656;46.054;13.614;2022-08-21T09:50:27;100068.41;;;26.78;48.65
35553;BME280;21656;46.054;13.614;2022-08-21T09:52:57;100062.19;;;26.95;49.58
35553;BME280;21656;46.054;13.614;2022-08-21T09:55:34;100068.88;;;26.99;48.59
35553;BME280;21656;46.054;13.614;2022-08-21T09:58:31;100064.97;;;27.18;47.42
35553;BME280;21656;46.054;13.614;2022-08-21T10:01:00;100055.94;;;27.35;47.61
35553;BME280;21656;46.054;13.614;2022-08-21T10:03:26;100063.75;;;27.38;46.90
35553;BME280;21656;46.054;13.614;2022-08-21T10:05:58;100052.06;;;27.48;46.23
35553;BME280;21656;46.054;13.614;2022-08-21T10:08:27;100052.63;;;27.61;46.54
35553;BME280;21656;46.054;13.614;2022-08-21T10:11:08;100053.66;;;27.72;47.06
35553;BME280;21656;46.054;13.614;2022-08-21T10:16:41;100039.09;;;27.77;46.39
35553;BME280;21656;46.054;13.614;2022-08-21T10:19:27;100042.28;;;27.97;44.68
35553;BME280;21656;46.054;13.614;2022-08-21T10:27:25;100045.47;;;28.35;42.45
35553;BME280;21656;46.054;13.614;2022-08-21T10:30:09;100044.94;;;28.49;39.76
35553;BME280;21656;46.054;13.614;2022-08-21T10:33:02;100032.75;;;28.50;40.62
35553;BME280;21656;46.054;13.614;2022-08-21T10:47:30;100023.75;;;29.11;39.83
35553;BME280;21656;46.054;13.614;2022-08-21T10:50:12;100014.81;;;29.26;38.94
35553;BME280;21656;46.054;13.614;2022-08-21T10:56:19;100014.81;;;29.70;35.09
35553;BME280;21656;46.054;13.614;2022-08-21T10:58:58;100021.47;;;29.69;34.62
35553;BME280;21656;46.054;13.614;2022-08-21T11:06:39;100013.66;;;29.44;34.60
35553;BME280;21656;46.054;13.614;2022-08-21T11:09:16;100011.00;;;29.32;33.03
35553;BME280;21656;46.054;13.614;2022-08-21T11:12:00;100010.56;;;29.01;33.40
35553;BME280;21656;46.054;13.614;2022-08-21T11:14:49;100005.13;;;29.06;32.65
35553;BME280;21656;46.054;13.614;2022-08-21T11:17:36;100003.25;;;29.34;32.83
35553;BME280;21656;46.054;13.614;2022-08-21T11:20:24;100001.75;;;29.65;32.37
35553;BME280;21656;46.054;13.614;2022-08-21T11:23:14;100007.59;;;29.69;31.88
35553;BME280;21656;46.054;13.614;2022-08-21T11:25:47;100007.25;;;30.14;32.26
35553;BME280;21656;46.054;13.614;2022-08-21T11:28:27;99996.06;;;30.31;34.21
35553;BME280;21656;46.054;13.614;2022-08-21T11:36:38;99973.53;;;30.65;37.32
35553;BME280;21656;46.054;13.614;2022-08-21T11:39:24;99978.34;;;30.37;37.60
35553;BME280;21656;46.054;13.614;2022-08-21T11:50:11;99971.63;;;30.71;39.05
35553;BME280;21656;46.054;13.614;2022-08-21T11:52:43;99961.25;;;30.56;37.72
35553;BME280;21656;46.054;13.614;2022-08-21T11:55:21;99967.97;;;30.65;37.19
35553;BME280;21656;46.054;13.614;2022-08-21T11:58:11;99960.19;;;30.62;36.05
35553;BME280;21656;46.054;13.614;2022-08-21T12:00:43;99956.69;;;30.77;37.19
35553;BME280;21656;46.054;13.614;2022-08-21T12:03:15;99957.78;;;30.76;38.50
35553;BME280;21656;46.054;13.614;2022-08-21T12:05:51;99952.66;;;30.57;37.06
35553;BME280;21656;46.054;13.614;2022-08-21T12:08:39;99949.78;;;30.42;37.39
35553;BME280;21656;46.054;13.614;2022-08-21T12:11:23;99958.34;;;30.08;34.93
35553;BME280;21656;46.054;13.614;2022-08-21T12:16:38;99941.19;;;29.62;36.34
35553;BME280;21656;46.054;13.614;2022-08-21T12:21:58;99940.91;;;29.58;39.41
35553;BME280;21656;46.054;13.614;2022-08-21T12:30:01;99931.28;;;29.66;37.10
35553;BME280;21656;46.054;13.614;2022-08-21T12:32:55;99936.69;;;30.10;37.35
35553;BME280;21656;46.054;13.614;2022-08-21T12:35:25;99924.53;;;30.49;38.29
35553;BME280;21656;46.054;13.614;2022-08-21T12:38:32;99924.50;;;30.86;37.10
35553;BME280;21656;46.054;13.614;2022-08-21T12:41:04;99921.84;;;31.12;36.67
35553;BME280;21656;46.054;13.614;2022-08-21T12:43:38;99915.50;;;31.26;35.95
35553;BME280;21656;46.054;13.614;2022-08-21T12:46:05;99915.59;;;31.47;36.65
35553;BME280;21656;46.054;13.614;2022-08-21T12:51:58;99907.72;;;30.28;38.09
35553;BME280;21656;46.054;13.614;2022-08-21T12:54:29;99905.00;;;30.01;39.56
35553;BME280;21656;46.054;13.614;2022-08-21T12:57:01;99899.69;;;29.99;39.63
35553;BME280;21656;46.054;13.614;2022-08-21T12:59:27;99906.19;;;29.78;39.38
35553;BME280;21656;46.054;13.614;2022-08-21T13:01:53;99898.00;;;29.66;39.58
35553;BME280;21656;46.054;13.614;2022-08-21T13:04:32;99899.44;;;29.47;40.76
35553;BME280;21656;46.054;13.614;2022-08-21T13:06:59;99902.75;;;29.44;41.26
35553;BME280;21656;46.054;13.614;2022-08-21T13:09:28;99897.66;;;29.35;42.53
35553;BME280;21656;46.054;13.614;2022-08-21T13:11:57;99900.84;;;29.22;41.46
35553;BME280;21656;46.054;13.614;2022-08-21T13:14:36;99909.66;;;29.19;43.10
35553;BME280;21656;46.054;13.614;2022-08-21T13:17:04;99900.66;;;29.07;43.32
35553;BME280;21656;46.054;13.614;2022-08-21T13:19:30;99904.28;;;29.07;43.65
35553;BME280;21656;46.054;13.614;2022-08-21T13:21:57;99907.28;;;29.06;44.52
35553;BME280;21656;46.054;13.614;2022-08-21T13:24:26;99909.44;;;29.04;44.23
35553;BME280;21656;46.054;13.614;2022-08-21T13:26:52;99902.56;;;29.06;44.95
35553;BME280;21656;46.054;13.614;2022-08-21T13:29:21;99900.72;;;29.12;45.55
35553;BME280;21656;46.054;13.614;2022-08-21T13:31:56;99898.56;;;28.97;47.23
35553;BME280;21656;46.054;13.614;2022-08-21T13:34:26;99894.31;;;28.89;48.23
35553;BME280;21656;46.054;13.614;2022-08-21T13:36:58;99904.25;;;28.68;49.45
35553;BME280;21656;46.054;13.614;2022-08-21T13:39:24;99898.66;;;28.63;50.29
35553;BME280;21656;46.054;13.614;2022-08-21T13:41:52;99900.69;;;28.51;51.04
35553;BME280;21656;46.054;13.614;2022-08-21T13:44:33;99902.34;;;28.35;50.49
35553;BME280;21656;46.054;13.614;2022-08-21T13:47:02;99906.66;;;28.26;50.94
35553;BME280;21656;46.054;13.614;2022-08-21T13:49:32;99906.38;;;28.10;52.71
35553;BME280;21656;46.054;13.614;2022-08-21T13:51:58;99912.53;;;27.96;54.38
35553;BME280;21656;46.054;13.614;2022-08-21T13:54:33;99904.16;;;27.91;55.07
35553;BME280;21656;46.054;13.614;2022-08-21T13:57:00;99904.88;;;27.86;54.91
35553;BME280;21656;46.054;13.614;2022-08-21T13:59:29;99903.69;;;27.82;56.44
35553;BME280;21656;46.054;13.614;2022-08-21T14:04:29;99899.66;;;27.73;57.20
35553;BME280;21656;46.054;13.614;2022-08-21T14:06:56;99902.47;;;27.61;57.22
35553;BME280;21656;46.054;13.614;2022-08-21T14:11:50;99904.72;;;27.64;58.42
35553;BME280;21656;46.054;13.614;2022-08-21T14:14:23;99894.78;;;27.63;58.27
35553;BME280;21656;46.054;13.614;2022-08-21T14:17:03;99900.31;;;27.63;58.77
35553;BME280;21656;46.054;13.614;2022-08-21T14:19:40;99894.78;;;27.63;58.81
35553;BME280;21656;46.054;13.614;2022-08-21T14:22:29;99898.00;;;27.60;59.09
35553;BME280;21656;46.054;13.614;2022-08-21T14:28:02;99902.69;;;27.42;61.67
35553;BME280;21656;46.054;13.614;2022-08-21T14:30:35;99903.00;;;27.17;66.01
35553;BME280;21656;46.054;13.614;2022-08-21T14:33:02;99897.94;;;27.14;66.69
35553;BME280;21656;46.054;13.614;2022-08-21T14:35:29;99884.28;;;27.08;66.88
35553;BME280;21656;46.054;13.614;2022-08-21T14:37:55;99886.44;;;27.06;63.63
35553;BME280;21656;46.054;13.614;2022-08-21T14:40:23;99881.84;;;27.23;60.07
35553;BME280;21656;46.054;13.614;2022-08-21T14:42:50;99878.56;;;27.38;61.50
35553;BME280;21656;46.054;13.614;2022-08-21T14:47:46;99872.66;;;27.34;65.59
35553;BME280;21656;46.054;13.614;2022-08-21T14:50:13;99884.69;;;27.40;55.90
35553;BME280;21656;46.054;13.614;2022-08-21T14:52:39;99884.78;;;27.45;54.47
35553;BME280;21656;46.054;13.614;2022-08-21T14:55:06;99892.66;;;27.53;56.88
35553;BME280;21656;46.054;13.614;2022-08-21T14:57:32;99882.47;;;27.71;55.00
35553;BME280;21656;46.054;13.614;2022-08-21T14:59:59;99881.56;;;27.82;53.50
35553;BME280;21656;46.054;13.614;2022-08-21T15:02:25;99897.50;;;27.92;53.78
35553;BME280;21656;46.054;13.614;2022-08-21T15:04:50;99908.72;;;27.85;52.91
35553;BME280;21656;46.054;13.614;2022-08-21T15:07:16;99926.22;;;27.74;51.48
35553;BME280;21656;46.054;13.614;2022-08-21T15:09:41;99927.69;;;27.64;50.26
35553;BME280;21656;46.054;13.614;2022-08-21T15:12:08;99946.25;;;27.23;49.21
35553;BME280;21656;46.054;13.614;2022-08-21T15:14:36;99971.13;;;26.41;52.41
35553;BME280;21656;46.054;13.614;2022-08-21T15:17:04;99967.78;;;25.85;57.23
35553;BME280;21656;46.054;13.614;2022-08-21T15:19:30;99970.16;;;25.33;61.25
35553;BME280;21656;46.054;13.614;2022-08-21T15:21:56;99964.34;;;25.04;64.62
35553;BME280;21656;46.054;13.614;2022-08-21T15:24:22;99971.63;;;23.98;70.58
35553;BME280;21656;46.054;13.614;2022-08-21T15:26:47;99987.03;;;23.68;70.73
35553;BME280;21656;46.054;13.614;2022-08-21T15:29:14;100011.41;;;23.96;68.63
35553;BME280;21656;46.054;13.614;2022-08-21T15:31:52;100017.34;;;23.93;67.30
35553;BME280;21656;46.054;13.614;2022-08-21T15:34:19;100035.22;;;23.70;70.25
35553;BME280;21656;46.054;13.614;2022-08-21T15:36:45;100029.72;;;23.05;77.02
35553;BME280;21656;46.054;13.614;2022-08-21T15:39:11;100027.81;;;23.12;80.81
35553;BME280;21656;46.054;13.614;2022-08-21T15:41:36;100023.84;;;22.75;80.50
35553;BME280;21656;46.054;13.614;2022-08-21T15:44:02;100042.63;;;22.91;86.59
35553;BME280;21656;46.054;13.614;2022-08-21T15:46:27;100046.22;;;22.59;87.54
35553;BME280;21656;46.054;13.614;2022-08-21T15:48:53;100038.19;;;22.57;90.38
35553;BME280;21656;46.054;13.614;2022-08-21T15:51:18;100009.91;;;22.50;87.58
35553;BME280;21656;46.054;13.614;2022-08-21T15:53:44;99995.56;;;22.48;88.50
35553;BME280;21656;46.054;13.614;2022-08-21T15:56:18;99995.38;;;22.56;89.20
35553;BME280;21656;46.054;13.614;2022-08-21T15:58:45;100033.34;;;22.39;95.55
35553;BME280;21656;46.054;13.614;2022-08-21T16:01:11;100046.31;;;21.97;99.67
35553;BME280;21656;46.054;13.614;2022-08-21T16:03:36;100005.34;;;21.62;100.00
35553;BME280;21656;46.054;13.614;2022-08-21T16:06:02;99992.16;;;21.38;100.00
35553;BME280;21656;46.054;13.614;2022-08-21T16:08:27;99990.41;;;20.32;100.00
35553;BME280;21656;46.054;13.614;2022-08-21T16:10:54;100000.44;;;20.75;100.00
35553;BME280;21656;46.054;13.614;2022-08-21T16:13:25;100025.75;;;20.84;100.00
35553;BME280;21656;46.054;13.614;2022-08-21T16:15:52;100036.81;;;21.04;100.00
35553;BME280;21656;46.054;13.614;2022-08-21T16:18:19;100046.22;;;21.23;100.00
35553;BME280;21656;46.054;13.614;2022-08-21T16:20:46;100046.03;;;21.31;99.03
35553;BME280;21656;46.054;13.614;2022-08-21T16:23:11;100049.19;;;21.28;97.82
35553;BME280;21656;46.054;13.614;2022-08-21T16:25:38;100054.56;;;21.42;98.06
35553;BME280;21656;46.054;13.614;2022-08-21T16:28:06;100059.81;;;21.44;99.38
35553;BME280;21656;46.054;13.614;2022-08-21T16:30:32;100064.34;;;21.65;97.15
35553;BME280;21656;46.054;13.614;2022-08-21T16:33:00;100056.78;;;21.74;94.66
35553;BME280;21656;46.054;13.614;2022-08-21T16:35:27;100057.84;;;21.73;96.45
35553;BME280;21656;46.054;13.614;2022-08-21T16:37:53;100050.91;;;21.35;99.32
35553;BME280;21656;46.054;13.614;2022-08-21T16:40:19;100040.50;;;21.52;97.94
35553;BME280;21656;46.054;13.614;2022-08-21T16:42:47;100048.66;;;21.46;97.12
35553;BME280;21656;46.054;13.614;2022-08-21T16:45:15;100045.06;;;21.38;99.66
35553;BME280;21656;46.054;13.614;2022-08-21T16:47:42;100046.44;;;21.62;98.05
35553;BME280;21656;46.054;13.614;2022-08-21T16:50:10;100053.59;;;21.63;96.50
35553;BME280;21656;46.054;13.614;2022-08-21T16:52:38;100050.88;;;21.70;96.30
35553;BME280;21656;46.054;13.614;2022-08-21T16:55:04;100039.75;;;21.78;96.02
35553;BME280;21656;46.054;13.614;2022-08-21T16:57:30;100037.25;;;21.97;95.31
35553;BME280;21656;46.054;13.614;2022-08-21T16:59:56;100034.47;;;21.90;95.78
35553;BME280;21656;46.054;13.614;2022-08-21T17:02:34;100051.53;;;21.79;95.02
35553;BME280;21656;46.054;13.614;2022-08-21T17:05:01;100056.38;;;21.70;93.78
35553;BME280;21656;46.054;13.614;2022-08-21T17:07:27;100063.56;;;21.78;94.88
35553;BME280;21656;46.054;13.614;2022-08-21T17:09:53;100050.91;;;21.77;95.25
35553;BME280;21656;46.054;13.614;2022-08-21T17:12:19;100062.53;;;21.92;93.28
35553;BME280;21656;46.054;13.614;2022-08-21T17:14:46;100060.84;;;21.91;93.00
35553;BME280;21656;46.054;13.614;2022-08-21T17:17:13;100070.56;;;21.94;92.46
35553;BME280;21656;46.054;13.614;2022-08-21T17:19:39;100070.38;;;21.95;94.10
35553;BME280;21656;46.054;13.614;2022-08-21T17:22:05;100073.50;;;21.92;94.85
35553;BME280;21656;46.054;13.614;2022-08-21T17:24:32;100070.97;;;21.91;94.35
35553;BME280;21656;46.054;13.614;2022-08-21T17:27:02;100076.25;;;21.92;94.14
35553;BME280;21656;46.054;13.614;2022-08-21T17:29:35;100080.91;;;21.98;94.02
35553;BME280;21656;46.054;13.614;2022-08-21T17:32:02;100076.50;;;22.04;93.34
35553;BME280;21656;46.054;13.614;2022-08-21T17:34:28;100073.97;;;22.09;92.98
35553;BME280;21656;46.054;13.614;2022-08-21T17:36:54;100068.50;;;22.09;91.75
35553;BME280;21656;46.054;13.614;2022-08-21T17:39:20;100067.84;;;22.00;91.27
35553;BME280;21656;46.054;13.614;2022-08-21T17:41:46;100067.41;;;21.97;91.92
35553;BME280;21656;46.054;13.614;2022-08-21T17:44:14;100074.97;;;21.95;91.87
35553;BME280;21656;46.054;13.614;2022-08-21T17:46:41;100071.09;;;21.69;97.00
35553;BME280;21656;46.054;13.614;2022-08-21T17:49:07;100075.09;;;21.60;97.00
35553;BME280;21656;46.054;13.614;2022-08-21T17:51:33;100078.78;;;21.11;100.00
35553;BME280;21656;46.054;13.614;2022-08-21T17:53:59;100085.31;;;21.16;100.00
35553;BME280;21656;46.054;13.614;2022-08-21T17:56:35;100076.75;;;21.19;100.00
35553;BME280;21656;46.054;13.614;2022-08-21T17:59:03;100071.88;;;21.50;96.85
35553;BME280;21656;46.054;13.614;2022-08-21T18:01:32;100081.59;;;21.59;98.80
35553;BME280;21656;46.054;13.614;2022-08-21T18:03:59;100079.47;;;21.54;99.30
35553;BME280;21656;46.054;13.614;2022-08-21T18:06:24;100076.53;;;21.56;97.04
35553;BME280;21656;46.054;13.614;2022-08-21T18:08:50;100079.22;;;21.49;98.43
35553;BME280;21656;46.054;13.614;2022-08-21T18:11:18;100077.38;;;21.56;97.60
35553;BME280;21656;46.054;13.614;2022-08-21T18:13:46;100077.00;;;21.66;96.22
35553;BME280;21656;46.054;13.614;2022-08-21T18:16:13;100074.91;;;21.33;100.00
35553;BME280;21656;46.054;13.614;2022-08-21T18:18:44;100079.31;;;21.28;100.00
35553;BME280;21656;46.054;13.614;2022-08-21T18:21:10;100085.97;;;21.18;100.00
35553;BME280;21656;46.054;13.614;2022-08-21T18:23:36;100082.94;;;21.35;99.91
35553;BME280;21656;46.054;13.614;2022-08-21T18:26:02;100090.53;;;21.39;96.80
35553;BME280;21656;46.054;13.614;2022-08-21T18:28:28;100093.88;;;21.35;97.51
35553;BME280;21656;46.054;13.614;2022-08-21T18:30:53;100091.25;;;21.48;96.53
35553;BME280;21656;46.054;13.614;2022-08-21T18:33:20;100107.06;;;21.53;96.84
35553;BME280;21656;46.054;13.614;2022-08-21T18:35:46;100099.03;;;21.16;100.00
35553;BME280;21656;46.054;13.614;2022-08-21T18:38:12;100111.47;;;20.91;100.00
35553;BME280;21656;46.054;13.614;2022-08-21T18:40:43;100111.13;;;20.72;100.00
35553;BME280;21656;46.054;13.614;2022-08-21T18:43:11;100101.97;;;20.87;100.00
35553;BME280;21656;46.054;13.614;2022-08-21T18:45:38;100113.69;;;21.09;97.92
35553;BME280;21656;46.054;13.614;2022-08-21T18:48:09;100119.06;;;21.17;97.64
35553;BME280;21656;46.054;13.614;2022-08-21T18:50:37;100124.72;;;21.15;99.70
35553;BME280;21656;46.054;13.614;2022-08-21T18:53:03;100103.50;;;21.24;98.20
35553;BME280;21656;46.054;13.614;2022-08-21T18:55:30;100114.44;;;21.24;96.01
35553;BME280;21656;46.054;13.614;2022-08-21T18:57:57;100111.09;;;21.29;96.38
35553;BME280;21656;46.054;13.614;2022-08-21T19:00:26;100112.66;;;21.38;96.27
35553;BME280;21656;46.054;13.614;2022-08-21T19:02:53;100112.81;;;21.30;97.14
35553;BME280;21656;46.054;13.614;2022-08-21T19:05:20;100111.09;;;21.29;97.29
35553;BME280;21656;46.054;13.614;2022-08-21T19:07:47;100119.31;;;21.29;96.56
35553;BME280;21656;46.054;13.614;2022-08-21T19:10:14;100121.16;;;21.21;95.85
35553;BME280;21656;46.054;13.614;2022-08-21T19:12:41;100115.84;;;21.13;95.96
35553;BME280;21656;46.054;13.614;2022-08-21T19:15:12;100115.16;;;21.05;95.52
35553;BME280;21656;46.054;13.614;2022-08-21T19:17:39;100115.19;;;21.11;94.91
35553;BME280;21656;46.054;13.614;2022-08-21T19:20:13;100125.22;;;20.97;98.06
35553;BME280;21656;46.054;13.614;2022-08-21T19:22:39;100119.69;;;20.91;98.47
35553;BME280;21656;46.054;13.614;2022-08-21T19:25:05;100124.59;;;20.74;100.00
35553;BME280;21656;46.054;13.614;2022-08-21T19:27:32;100119.22;;;20.59;100.00
35553;BME280;21656;46.054;13.614;2022-08-21T19:29:58;100116.66;;;20.79;97.00
35553;BME280;21656;46.054;13.614;2022-08-21T19:32:24;100115.00;;;20.85;96.51
35553;BME280;21656;46.054;13.614;2022-08-21T19:34:49;100127.44;;;20.87;96.87
35553;BME280;21656;46.054;13.614;2022-08-21T19:37:15;100125.16;;;20.91;96.35
35553;BME280;21656;46.054;13.614;2022-08-21T19:39:42;100125.16;;;20.91;96.90
35553;BME280;21656;46.054;13.614;2022-08-21T19:42:08;100119.41;;;20.58;99.47
35553;BME280;21656;46.054;13.614;2022-08-21T19:44:34;100118.00;;;20.68;97.40
35553;BME280;21656;46.054;13.614;2022-08-21T19:47:02;100129.09;;;20.39;99.29
35553;BME280;21656;46.054;13.614;2022-08-21T19:49:30;100120.22;;;20.58;97.71
35553;BME280;21656;46.054;13.614;2022-08-21T19:51:57;100126.75;;;20.57;97.86
35553;BME280;21656;46.054;13.614;2022-08-21T19:54:29;100123.47;;;20.68;96.73
35553;BME280;21656;46.054;13.614;2022-08-21T19:57:01;100127.34;;;20.74;97.43
35553;BME280;21656;46.054;13.614;2022-08-21T19:59:27;100130.44;;;20.71;96.89
35553;BME280;21656;46.054;13.614;2022-08-21T20:01:53;100124.88;;;20.58;97.42
35553;BME280;21656;46.054;13.614;2022-08-21T20:04:20;100133.75;;;20.23;99.84
35553;BME280;21656;46.054;13.614;2022-08-21T20:06:45;100128.41;;;20.00;100.00
35553;BME280;21656;46.054;13.614;2022-08-21T20:09:12;100125.19;;;19.60;100.00
35553;BME280;21656;46.054;13.614;2022-08-21T20:11:42;100122.91;;;19.79;100.00
35553;BME280;21656;46.054;13.614;2022-08-21T20:14:11;100125.94;;;19.69;100.00
35553;BME280;21656;46.054;13.614;2022-08-21T20:16:39;100127.63;;;19.55;100.00
35553;BME280;21656;46.054;13.614;2022-08-21T20:19:07;100124.06;;;19.55;100.00
35553;BME280;21656;46.054;13.614;2022-08-21T20:21:35;100126.88;;;19.76;100.00
35553;BME280;21656;46.054;13.614;2022-08-21T20:24:02;100128.75;;;19.61;100.00
35553;BME280;21656;46.054;13.614;2022-08-21T20:26:28;100130.06;;;19.65;100.00
35553;BME280;21656;46.054;13.614;2022-08-21T20:28:56;100127.41;;;19.57;100.00
35553;BME280;21656;46.054;13.614;2022-08-21T20:31:22;100127.00;;;19.68;100.00